sensor_id;sensor_type;location;lat;lon;timestamp;temperature;humidity
20610;DHT22;10463;52.378;9.688;2023-04-01T00:01:39;24.60;26.00
20610;DHT22;10463;52.378;9.688;2023-04-01T00:04:24;24.60;26.00
20610;DHT22;10463;52.378;9.688;2023-04-01T00:07:08;24.60;26.00
20610;DHT22;10463;52.378;9.688;2023-04-01T00:09:57;24.60;26.00
20610;DHT22;10463;52.378;9.688;2023-04-01T00:12:43;24.60;26.00
20610;DHT22;10463;52.378;9.688;2023-04-01T00:15:27;24.60;26.00
20610;DHT22;10463;52.378;9.688;2023-04-01T00:18:13;24.60;26.00
20610;DHT22;10463;52.378;9.688;2023-04-01T00:20:58;24.60;26.00
20610;DHT22;10463;52.378;9.688;2023-04-01T00:23:43;24.60;26.00
20610;DHT22;10463;52.378;9.688;2023-04-01T00:26:28;24.60;26.00
20610;DHT22;10463;52.378;9.688;2023-04-01T00:29:14;24.60;26.00
20610;DHT22;10463;52.378;9.688;2023-04-01T00:31:59;24.60;26.00
20610;DHT22;10463;52.378;9.688;2023-04-01T00:34:45;24.60;26.00
20610;DHT22;10463;52.378;9.688;2023-04-01T00:37:30;24.60;26.00
20610;DHT22;10463;52.378;9.688;2023-04-01T00:40:26;24.60;26.00
20610;DHT22;10463;52.378;9.688;2023-04-01T00:43:14;24.60;26.00
20610;DHT22;10463;52.378;9.688;2023-04-01T00:46:00;24.60;26.00
20610;DHT22;10463;52.378;9.688;2023-04-01T00:48:49;24.60;26.00
20610;DHT22;10463;52.378;9.688;2023-04-01T00:51:37;24.60;26.00
20610;DHT22;10463;52.378;9.688;2023-04-01T00:54:25;24.60;26.00
20610;DHT22;10463;52.378;9.688;2023-04-01T00:57:15;24.60;26.00
20610;DHT22;10463;52.378;9.688;2023-04-01T01:00:02;24.60;26.00
20610;DHT22;10463;52.378;9.688;2023-04-01T01:02:50;24.60;26.00
20610;DHT22;10463;52.378;9.688;2023-04-01T01:09:05;24.60;26.00
20610;DHT22;10463;52.378;9.688;2023-04-01T01:12:02;24.60;26.00
20610;DHT22;10463;52.378;9.688;2023-04-01T01:15:02;24.60;26.00
20610;DHT22;10463;52.378;9.688;2023-04-01T01:18:01;24.60;26.00
20610;DHT22;10463;52.378;9.688;2023-04-01T01:24:28;24.60;26.00
20610;DHT22;10463;52.378;9.688;2023-04-01T01:27:15;24.60;26.00
20610;DHT22;10463;52.378;9.688;2023-04-01T01:30:28;24.60;26.10
20610;DHT22;10463;52.378;9.688;2023-04-01T01:33:39;24.60;26.10
20610;DHT22;10463;52.378;9.688;2023-04-01T01:36:32;24.60;26.00
20610;DHT22;10463;52.378;9.688;2023-04-01T01:39:21;24.60;26.10
20610;DHT22;10463;52.378;9.688;2023-04-01T01:42:15;24.60;26.00
20610;DHT22;10463;52.378;9.688;2023-04-01T01:45:02;24.60;26.00
20610;DHT22;10463;52.378;9.688;2023-04-01T01:47:49;24.60;26.10
20610;DHT22;10463;52.378;9.688;2023-04-01T01:50:35;24.50;26.00
20610;DHT22;10463;52.378;9.688;2023-04-01T01:53:23;24.50;26.00
20610;DHT22;10463;52.378;9.688;2023-04-01T01:56:09;24.60;26.00
20610;DHT22;10463;52.378;9.688;2023-04-01T01:59:01;24.50;26.00
20610;DHT22;10463;52.378;9.688;2023-04-01T02:01:51;24.60;26.00
20610;DHT22;10463;52.378;9.688;2023-04-01T02:04:40;24.60;26.10
20610;DHT22;10463;52.378;9.688;2023-04-01T02:07:31;24.50;26.00
20610;DHT22;10463;52.378;9.688;2023-04-01T02:10:21;24.50;26.00
20610;DHT22;10463;52.378;9.688;2023-04-01T02:13:15;24.60;26.10
20610;DHT22;10463;52.378;9.688;2023-04-01T02:16:06;24.50;26.00
20610;DHT22;10463;52.378;9.688;2023-04-01T02:18:53;24.50;26.00
20610;DHT22;10463;52.378;9.688;2023-04-01T02:21:41;24.50;26.00
20610;DHT22;10463;52.378;9.688;2023-04-01T02:24:28;24.50;26.00
20610;DHT22;10463;52.378;9.688;2023-04-01T02:27:16;24.50;26.00
20610;DHT22;10463;52.378;9.688;2023-04-01T02:30:01;24.50;26.00
20610;DHT22;10463;52.378;9.688;2023-04-01T02:32:46;24.50;26.00
20610;DHT22;10463;52.378;9.688;2023-04-01T02:35:34;24.50;26.00
20610;DHT22;10463;52.378;9.688;2023-04-01T02:38:19;24.50;26.00
20610;DHT22;10463;52.378;9.688;2023-04-01T02:41:04;24.50;26.00
20610;DHT22;10463;52.378;9.688;2023-04-01T02:43:51;24.50;26.00
20610;DHT22;10463;52.378;9.688;2023-04-01T02:46:36;24.50;26.00
20610;DHT22;10463;52.378;9.688;2023-04-01T02:49:22;24.50;26.00
20610;DHT22;10463;52.378;9.688;2023-04-01T02:52:07;24.50;26.00
20610;DHT22;10463;52.378;9.688;2023-04-01T02:54:52;24.50;26.00
20610;DHT22;10463;52.378;9.688;2023-04-01T02:57:38;24.50;26.00
20610;DHT22;10463;52.378;9.688;2023-04-01T03:00:24;24.50;26.00
20610;DHT22;10463;52.378;9.688;2023-04-01T03:03:12;24.50;26.00
20610;DHT22;10463;52.378;9.688;2023-04-01T03:05:57;24.50;26.00
20610;DHT22;10463;52.378;9.688;2023-04-01T03:08:44;24.50;26.00
20610;DHT22;10463;52.378;9.688;2023-04-01T03:11:29;24.50;26.00
20610;DHT22;10463;52.378;9.688;2023-04-01T03:14:14;24.50;26.50
20610;DHT22;10463;52.378;9.688;2023-04-01T03:17:00;24.50;26.10
20610;DHT22;10463;52.378;9.688;2023-04-01T03:19:45;24.40;25.90
20610;DHT22;10463;52.378;9.688;2023-04-01T03:22:31;24.50;26.00
20610;DHT22;10463;52.378;9.688;2023-04-01T03:25:15;24.40;25.90
20610;DHT22;10463;52.378;9.688;2023-04-01T03:28:00;24.40;25.90
20610;DHT22;10463;52.378;9.688;2023-04-01T03:30:45;24.50;26.00
20610;DHT22;10463;52.378;9.688;2023-04-01T03:33:32;24.50;26.00
20610;DHT22;10463;52.378;9.688;2023-04-01T03:36:17;24.40;25.90
20610;DHT22;10463;52.378;9.688;2023-04-01T03:39:02;24.50;26.00
20610;DHT22;10463;52.378;9.688;2023-04-01T03:41:55;24.40;26.00
20610;DHT22;10463;52.378;9.688;2023-04-01T03:44:40;24.50;26.00
20610;DHT22;10463;52.378;9.688;2023-04-01T03:47:26;24.40;26.00
20610;DHT22;10463;52.378;9.688;2023-04-01T03:50:12;24.40;26.00
20610;DHT22;10463;52.378;9.688;2023-04-01T03:52:56;24.40;26.00
20610;DHT22;10463;52.378;9.688;2023-04-01T03:55:41;24.40;26.00
20610;DHT22;10463;52.378;9.688;2023-04-01T03:58:26;24.40;26.00
20610;DHT22;10463;52.378;9.688;2023-04-01T04:01:17;24.40;26.00
20610;DHT22;10463;52.378;9.688;2023-04-01T04:04:03;24.40;26.00
20610;DHT22;10463;52.378;9.688;2023-04-01T04:06:49;24.40;26.00
20610;DHT22;10463;52.378;9.688;2023-04-01T04:09:35;24.40;26.00
20610;DHT22;10463;52.378;9.688;2023-04-01T04:12:20;24.40;26.00
20610;DHT22;10463;52.378;9.688;2023-04-01T04:15:06;24.40;26.00
20610;DHT22;10463;52.378;9.688;2023-04-01T04:17:50;24.40;26.00
20610;DHT22;10463;52.378;9.688;2023-04-01T04:20:35;24.40;26.00
20610;DHT22;10463;52.378;9.688;2023-04-01T04:23:22;24.40;26.00
20610;DHT22;10463;52.378;9.688;2023-04-01T04:26:10;24.40;26.00
20610;DHT22;10463;52.378;9.688;2023-04-01T04:28:55;24.40;26.00
20610;DHT22;10463;52.378;9.688;2023-04-01T04:31:40;24.40;26.00
20610;DHT22;10463;52.378;9.688;2023-04-01T04:34:25;24.40;26.00
20610;DHT22;10463;52.378;9.688;2023-04-01T04:37:09;24.40;26.00
20610;DHT22;10463;52.378;9.688;2023-04-01T04:39:56;24.40;26.00
20610;DHT22;10463;52.378;9.688;2023-04-01T04:42:41;24.40;26.00
20610;DHT22;10463;52.378;9.688;2023-04-01T04:45:30;24.40;26.00
20610;DHT22;10463;52.378;9.688;2023-04-01T04:48:16;24.40;26.00
20610;DHT22;10463;52.378;9.688;2023-04-01T04:51:04;24.40;26.00
20610;DHT22;10463;52.378;9.688;2023-04-01T04:53:49;24.40;26.00
20610;DHT22;10463;52.378;9.688;2023-04-01T04:56:35;24.40;26.00
20610;DHT22;10463;52.378;9.688;2023-04-01T04:59:25;24.40;26.00
20610;DHT22;10463;52.378;9.688;2023-04-01T05:02:24;24.40;26.00
20610;DHT22;10463;52.378;9.688;2023-04-01T05:05:09;24.40;26.00
20610;DHT22;10463;52.378;9.688;2023-04-01T05:07:55;24.40;26.00
20610;DHT22;10463;52.378;9.688;2023-04-01T05:10:40;24.40;26.00
20610;DHT22;10463;52.378;9.688;2023-04-01T05:13:26;24.40;26.00
20610;DHT22;10463;52.378;9.688;2023-04-01T05:16:14;24.40;26.00
20610;DHT22;10463;52.378;9.688;2023-04-01T05:18:59;24.40;26.00
20610;DHT22;10463;52.378;9.688;2023-04-01T05:21:43;24.40;26.00
20610;DHT22;10463;52.378;9.688;2023-04-01T05:24:29;24.40;26.00
20610;DHT22;10463;52.378;9.688;2023-04-01T05:27:14;24.40;26.00
20610;DHT22;10463;52.378;9.688;2023-04-01T05:30:02;24.40;26.00
20610;DHT22;10463;52.378;9.688;2023-04-01T05:33:07;24.30;26.00
20610;DHT22;10463;52.378;9.688;2023-04-01T05:35:52;24.30;26.00
20610;DHT22;10463;52.378;9.688;2023-04-01T05:38:37;24.40;26.00
20610;DHT22;10463;52.378;9.688;2023-04-01T05:41:24;24.40;26.00
20610;DHT22;10463;52.378;9.688;2023-04-01T05:44:11;24.30;26.00
20610;DHT22;10463;52.378;9.688;2023-04-01T05:47:01;24.30;26.00
20610;DHT22;10463;52.378;9.688;2023-04-01T05:49:46;24.30;26.00
20610;DHT22;10463;52.378;9.688;2023-04-01T05:52:30;24.40;26.00
20610;DHT22;10463;52.378;9.688;2023-04-01T05:55:16;24.30;26.00
20610;DHT22;10463;52.378;9.688;2023-04-01T05:58:00;24.40;26.00
20610;DHT22;10463;52.378;9.688;2023-04-01T06:00:47;24.40;26.60
20610;DHT22;10463;52.378;9.688;2023-04-01T06:03:36;24.40;26.00
20610;DHT22;10463;52.378;9.688;2023-04-01T06:06:25;24.40;26.00
20610;DHT22;10463;52.378;9.688;2023-04-01T06:09:16;24.40;26.00
20610;DHT22;10463;52.378;9.688;2023-04-01T06:12:32;24.30;26.00
20610;DHT22;10463;52.378;9.688;2023-04-01T06:15:33;24.30;26.00
20610;DHT22;10463;52.378;9.688;2023-04-01T06:19:03;24.30;26.00
20610;DHT22;10463;52.378;9.688;2023-04-01T06:22:40;24.30;26.00
20610;DHT22;10463;52.378;9.688;2023-04-01T06:25:55;24.30;26.00
20610;DHT22;10463;52.378;9.688;2023-04-01T06:29:38;24.30;26.00
20610;DHT22;10463;52.378;9.688;2023-04-01T06:32:58;24.30;26.00
20610;DHT22;10463;52.378;9.688;2023-04-01T06:39:47;24.30;26.00
20610;DHT22;10463;52.378;9.688;2023-04-01T06:42:52;24.30;26.00
20610;DHT22;10463;52.378;9.688;2023-04-01T06:46:06;24.30;26.00
20610;DHT22;10463;52.378;9.688;2023-04-01T06:49:41;24.30;26.00
20610;DHT22;10463;52.378;9.688;2023-04-01T06:53:12;24.30;26.00
20610;DHT22;10463;52.378;9.688;2023-04-01T06:56:20;24.30;26.00
20610;DHT22;10463;52.378;9.688;2023-04-01T06:59:35;24.30;26.10
20610;DHT22;10463;52.378;9.688;2023-04-01T07:02:28;24.30;26.10
20610;DHT22;10463;52.378;9.688;2023-04-01T07:05:16;24.30;26.10
20610;DHT22;10463;52.378;9.688;2023-04-01T07:08:04;24.30;26.10
20610;DHT22;10463;52.378;9.688;2023-04-01T07:10:55;24.30;26.10
20610;DHT22;10463;52.378;9.688;2023-04-01T07:14:03;24.30;26.10
20610;DHT22;10463;52.378;9.688;2023-04-01T07:16:54;24.30;26.00
20610;DHT22;10463;52.378;9.688;2023-04-01T07:19:45;24.30;26.10
20610;DHT22;10463;52.378;9.688;2023-04-01T07:22:34;24.30;26.10
20610;DHT22;10463;52.378;9.688;2023-04-01T07:25:36;24.30;26.10
20610;DHT22;10463;52.378;9.688;2023-04-01T07:29:05;24.30;26.10
20610;DHT22;10463;52.378;9.688;2023-04-01T07:32:22;24.30;26.10
20610;DHT22;10463;52.378;9.688;2023-04-01T07:35:19;24.30;26.10
20610;DHT22;10463;52.378;9.688;2023-04-01T07:38:20;24.30;26.10
20610;DHT22;10463;52.378;9.688;2023-04-01T07:41:12;24.30;26.10
20610;DHT22;10463;52.378;9.688;2023-04-01T07:44:13;24.30;26.10
20610;DHT22;10463;52.378;9.688;2023-04-01T07:47:17;24.30;26.20
20610;DHT22;10463;52.378;9.688;2023-04-01T07:50:16;24.30;26.20
20610;DHT22;10463;52.378;9.688;2023-04-01T07:53:12;24.30;26.20
20610;DHT22;10463;52.378;9.688;2023-04-01T07:56:06;24.30;26.20
20610;DHT22;10463;52.378;9.688;2023-04-01T07:59:05;24.30;26.20
20610;DHT22;10463;52.378;9.688;2023-04-01T08:02:29;24.30;26.20
20610;DHT22;10463;52.378;9.688;2023-04-01T08:05:25;24.30;26.20
20610;DHT22;10463;52.378;9.688;2023-04-01T08:08:18;24.30;26.20
20610;DHT22;10463;52.378;9.688;2023-04-01T08:11:44;24.30;26.20
20610;DHT22;10463;52.378;9.688;2023-04-01T08:15:08;24.30;26.20
20610;DHT22;10463;52.378;9.688;2023-04-01T08:18:30;24.30;26.20
20610;DHT22;10463;52.378;9.688;2023-04-01T08:21:23;24.30;26.20
20610;DHT22;10463;52.378;9.688;2023-04-01T08:24:17;24.30;26.20
20610;DHT22;10463;52.378;9.688;2023-04-01T08:27:12;24.30;26.20
20610;DHT22;10463;52.378;9.688;2023-04-01T08:30:15;24.30;26.20
20610;DHT22;10463;52.378;9.688;2023-04-01T08:33:08;24.40;26.30
20610;DHT22;10463;52.378;9.688;2023-04-01T08:36:02;24.40;26.30
20610;DHT22;10463;52.378;9.688;2023-04-01T08:38:53;24.40;26.30
20610;DHT22;10463;52.378;9.688;2023-04-01T08:41:59;24.40;26.30
20610;DHT22;10463;52.378;9.688;2023-04-01T08:45:13;24.30;26.20
20610;DHT22;10463;52.378;9.688;2023-04-01T08:48:41;24.40;26.30
20610;DHT22;10463;52.378;9.688;2023-04-01T08:52:14;24.40;26.80
20610;DHT22;10463;52.378;9.688;2023-04-01T08:55:37;24.40;26.30
20610;DHT22;10463;52.378;9.688;2023-04-01T08:58:58;24.40;26.30
20610;DHT22;10463;52.378;9.688;2023-04-01T09:02:23;24.40;26.80
20610;DHT22;10463;52.378;9.688;2023-04-01T09:05:47;24.40;26.30
20610;DHT22;10463;52.378;9.688;2023-04-01T09:08:59;24.40;26.30
20610;DHT22;10463;52.378;9.688;2023-04-01T09:12:16;24.40;26.30
20610;DHT22;10463;52.378;9.688;2023-04-01T09:19:15;24.40;26.30
20610;DHT22;10463;52.378;9.688;2023-04-01T09:22:28;24.40;26.30
20610;DHT22;10463;52.378;9.688;2023-04-01T09:25:38;24.40;26.30
20610;DHT22;10463;52.378;9.688;2023-04-01T09:28:33;24.40;26.30
20610;DHT22;10463;52.378;9.688;2023-04-01T09:31:47;24.40;26.40
20610;DHT22;10463;52.378;9.688;2023-04-01T09:34:57;24.40;26.40
20610;DHT22;10463;52.378;9.688;2023-04-01T09:38:00;24.40;26.40
20610;DHT22;10463;52.378;9.688;2023-04-01T09:40:56;24.40;26.30
20610;DHT22;10463;52.378;9.688;2023-04-01T09:44:14;24.50;26.40
20610;DHT22;10463;52.378;9.688;2023-04-01T09:47:36;24.50;26.40
20610;DHT22;10463;52.378;9.688;2023-04-01T09:50:39;24.50;26.40
20610;DHT22;10463;52.378;9.688;2023-04-01T09:53:48;24.50;26.40
20610;DHT22;10463;52.378;9.688;2023-04-01T09:57:15;24.50;26.40
20610;DHT22;10463;52.378;9.688;2023-04-01T10:00:32;24.50;26.40
20610;DHT22;10463;52.378;9.688;2023-04-01T10:10:22;24.50;26.40
20610;DHT22;10463;52.378;9.688;2023-04-01T10:17:20;24.60;26.40
20610;DHT22;10463;52.378;9.688;2023-04-01T10:24:09;24.60;26.50
20610;DHT22;10463;52.378;9.688;2023-04-01T10:27:20;24.60;26.50
20610;DHT22;10463;52.378;9.688;2023-04-01T10:30:44;24.50;26.50
20610;DHT22;10463;52.378;9.688;2023-04-01T10:34:39;24.60;26.60
20610;DHT22;10463;52.378;9.688;2023-04-01T10:52:43;24.60;26.70
20610;DHT22;10463;52.378;9.688;2023-04-01T10:59:32;24.70;26.80
20610;DHT22;10463;52.378;9.688;2023-04-01T11:03:53;24.70;26.80
20610;DHT22;10463;52.378;9.688;2023-04-01T11:07:22;24.70;26.80
20610;DHT22;10463;52.378;9.688;2023-04-01T11:10:50;24.70;26.80
20610;DHT22;10463;52.378;9.688;2023-04-01T11:17:17;24.70;26.80
20610;DHT22;10463;52.378;9.688;2023-04-01T11:20:45;24.70;26.80
20610;DHT22;10463;52.378;9.688;2023-04-01T11:24:05;24.70;26.80
20610;DHT22;10463;52.378;9.688;2023-04-01T11:27:15;24.80;26.90
20610;DHT22;10463;52.378;9.688;2023-04-01T11:30:26;24.80;26.90
20610;DHT22;10463;52.378;9.688;2023-04-01T11:33:19;24.80;26.90
20610;DHT22;10463;52.378;9.688;2023-04-01T11:36:20;24.80;26.90
20610;DHT22;10463;52.378;9.688;2023-04-01T11:39:24;24.80;27.50
20610;DHT22;10463;52.378;9.688;2023-04-01T11:42:28;24.90;27.00
20610;DHT22;10463;52.378;9.688;2023-04-01T11:45:37;24.80;26.90
20610;DHT22;10463;52.378;9.688;2023-04-01T11:48:49;24.90;27.00
20610;DHT22;10463;52.378;9.688;2023-04-01T11:52:10;24.90;27.00
20610;DHT22;10463;52.378;9.688;2023-04-01T11:55:25;24.90;27.00
20610;DHT22;10463;52.378;9.688;2023-04-01T11:58:31;24.90;27.00
20610;DHT22;10463;52.378;9.688;2023-04-01T12:01:42;24.90;27.00
20610;DHT22;10463;52.378;9.688;2023-04-01T12:04:58;25.00;27.00
20610;DHT22;10463;52.378;9.688;2023-04-01T12:08:10;25.00;27.00
20610;DHT22;10463;52.378;9.688;2023-04-01T12:11:09;25.00;27.00
20610;DHT22;10463;52.378;9.688;2023-04-01T12:14:11;25.00;27.00
20610;DHT22;10463;52.378;9.688;2023-04-01T12:17:08;25.00;26.90
20610;DHT22;10463;52.378;9.688;2023-04-01T12:20:01;25.10;27.00
20610;DHT22;10463;52.378;9.688;2023-04-01T12:23:03;25.10;26.90
20610;DHT22;10463;52.378;9.688;2023-04-01T12:26:27;25.10;26.90
20610;DHT22;10463;52.378;9.688;2023-04-01T12:29:47;25.10;26.90
20610;DHT22;10463;52.378;9.688;2023-04-01T12:32:40;25.10;26.90
20610;DHT22;10463;52.378;9.688;2023-04-01T12:35:35;25.10;27.00
20610;DHT22;10463;52.378;9.688;2023-04-01T12:38:41;25.10;27.00
20610;DHT22;10463;52.378;9.688;2023-04-01T12:41:44;25.10;27.00
20610;DHT22;10463;52.378;9.688;2023-04-01T12:44:53;25.10;27.00
20610;DHT22;10463;52.378;9.688;2023-04-01T12:51:37;25.20;27.10
20610;DHT22;10463;52.378;9.688;2023-04-01T12:55:06;25.20;27.00
20610;DHT22;10463;52.378;9.688;2023-04-01T12:58:32;25.20;27.00
20610;DHT22;10463;52.378;9.688;2023-04-01T13:01:40;25.20;27.00
20610;DHT22;10463;52.378;9.688;2023-04-01T13:05:01;25.20;27.10
20610;DHT22;10463;52.378;9.688;2023-04-01T13:08:00;25.20;27.00
20610;DHT22;10463;52.378;9.688;2023-04-01T13:11:08;25.20;27.00
20610;DHT22;10463;52.378;9.688;2023-04-01T13:14:29;25.20;27.00
20610;DHT22;10463;52.378;9.688;2023-04-01T13:17:21;25.20;27.00
20610;DHT22;10463;52.378;9.688;2023-04-01T13:20:16;25.20;27.00
20610;DHT22;10463;52.378;9.688;2023-04-01T13:23:16;25.20;27.00
20610;DHT22;10463;52.378;9.688;2023-04-01T13:26:13;25.30;27.10
20610;DHT22;10463;52.378;9.688;2023-04-01T13:29:04;25.30;27.10
20610;DHT22;10463;52.378;9.688;2023-04-01T13:32:10;25.30;27.10
20610;DHT22;10463;52.378;9.688;2023-04-01T13:35:25;25.30;27.00
20610;DHT22;10463;52.378;9.688;2023-04-01T13:38:41;25.30;27.00
20610;DHT22;10463;52.378;9.688;2023-04-01T13:44:49;25.30;27.00
20610;DHT22;10463;52.378;9.688;2023-04-01T13:48:25;25.40;27.00
20610;DHT22;10463;52.378;9.688;2023-04-01T13:51:31;25.40;26.90
20610;DHT22;10463;52.378;9.688;2023-04-01T13:54:45;25.40;26.90
20610;DHT22;10463;52.378;9.688;2023-04-01T14:00:58;25.40;26.90
20610;DHT22;10463;52.378;9.688;2023-04-01T14:04:17;25.40;26.90
20610;DHT22;10463;52.378;9.688;2023-04-01T14:07:14;25.40;26.90
20610;DHT22;10463;52.378;9.688;2023-04-01T14:13:20;25.40;26.90
20610;DHT22;10463;52.378;9.688;2023-04-01T14:20:00;25.40;26.90
20610;DHT22;10463;52.378;9.688;2023-04-01T14:23:07;25.40;26.90
20610;DHT22;10463;52.378;9.688;2023-04-01T14:26:22;25.40;26.80
20610;DHT22;10463;52.378;9.688;2023-04-01T14:29:26;25.40;26.80
20610;DHT22;10463;52.378;9.688;2023-04-01T14:32:24;25.40;26.80
20610;DHT22;10463;52.378;9.688;2023-04-01T14:35:37;25.40;26.80
20610;DHT22;10463;52.378;9.688;2023-04-01T14:38:39;25.40;26.80
20610;DHT22;10463;52.378;9.688;2023-04-01T14:41:36;25.40;26.80
20610;DHT22;10463;52.378;9.688;2023-04-01T14:44:49;25.40;26.80
20610;DHT22;10463;52.378;9.688;2023-04-01T14:47:47;25.40;26.80
20610;DHT22;10463;52.378;9.688;2023-04-01T14:50:44;25.40;26.80
20610;DHT22;10463;52.378;9.688;2023-04-01T14:53:33;25.30;26.80
20610;DHT22;10463;52.378;9.688;2023-04-01T14:56:38;25.40;26.80
20610;DHT22;10463;52.378;9.688;2023-04-01T14:59:29;25.30;26.80
20610;DHT22;10463;52.378;9.688;2023-04-01T15:02:37;25.30;26.80
20610;DHT22;10463;52.378;9.688;2023-04-01T15:05:39;25.30;26.80
20610;DHT22;10463;52.378;9.688;2023-04-01T15:08:29;25.30;26.80
20610;DHT22;10463;52.378;9.688;2023-04-01T15:11:42;25.30;26.80
20610;DHT22;10463;52.378;9.688;2023-04-01T15:14:55;25.30;26.80
20610;DHT22;10463;52.378;9.688;2023-04-01T15:18:05;25.30;26.80
20610;DHT22;10463;52.378;9.688;2023-04-01T15:21:13;25.30;26.80
20610;DHT22;10463;52.378;9.688;2023-04-01T15:24:07;25.30;26.80
20610;DHT22;10463;52.378;9.688;2023-04-01T15:27:09;25.30;26.80
20610;DHT22;10463;52.378;9.688;2023-04-01T15:30:21;25.30;26.80
20610;DHT22;10463;52.378;9.688;2023-04-01T15:33:47;25.30;26.80
20610;DHT22;10463;52.378;9.688;2023-04-01T15:36:41;25.30;26.80
20610;DHT22;10463;52.378;9.688;2023-04-01T15:39:42;25.30;26.80
20610;DHT22;10463;52.378;9.688;2023-04-01T15:42:50;25.20;26.70
20610;DHT22;10463;52.378;9.688;2023-04-01T15:45:52;25.30;26.80
20610;DHT22;10463;52.378;9.688;2023-04-01T15:49:03;25.20;26.70
20610;DHT22;10463;52.378;9.688;2023-04-01T15:52:03;25.20;26.70
20610;DHT22;10463;52.378;9.688;2023-04-01T15:55:09;25.20;26.70
20610;DHT22;10463;52.378;9.688;2023-04-01T15:58:27;25.20;26.70
20610;DHT22;10463;52.378;9.688;2023-04-01T16:01:28;25.20;26.70
20610;DHT22;10463;52.378;9.688;2023-04-01T16:04:43;25.20;26.60
20610;DHT22;10463;52.378;9.688;2023-04-01T16:07:55;25.20;26.60
20610;DHT22;10463;52.378;9.688;2023-04-01T16:11:02;25.20;26.70
20610;DHT22;10463;52.378;9.688;2023-04-01T16:14:03;25.20;26.60
20610;DHT22;10463;52.378;9.688;2023-04-01T16:17:05;25.20;26.60
20610;DHT22;10463;52.378;9.688;2023-04-01T16:19:59;25.20;26.60
20610;DHT22;10463;52.378;9.688;2023-04-01T16:22:52;25.20;26.60
20610;DHT22;10463;52.378;9.688;2023-04-01T16:25:41;25.20;26.60
20610;DHT22;10463;52.378;9.688;2023-04-01T16:28:32;25.20;26.60
20610;DHT22;10463;52.378;9.688;2023-04-01T16:31:31;25.20;26.60
20610;DHT22;10463;52.378;9.688;2023-04-01T16:34:24;25.20;26.60
20610;DHT22;10463;52.378;9.688;2023-04-01T16:37:19;25.20;26.60
20610;DHT22;10463;52.378;9.688;2023-04-01T16:40:16;25.20;26.60
20610;DHT22;10463;52.378;9.688;2023-04-01T16:43:15;25.20;26.60
20610;DHT22;10463;52.378;9.688;2023-04-01T16:46:33;25.20;26.60
20610;DHT22;10463;52.378;9.688;2023-04-01T16:49:32;25.10;26.50
20610;DHT22;10463;52.378;9.688;2023-04-01T16:52:35;25.20;26.50
20610;DHT22;10463;52.378;9.688;2023-04-01T16:55:22;25.10;26.50
20610;DHT22;10463;52.378;9.688;2023-04-01T16:58:10;25.10;26.50
20610;DHT22;10463;52.378;9.688;2023-04-01T17:01:04;25.10;26.50
20610;DHT22;10463;52.378;9.688;2023-04-01T17:03:53;25.10;26.50
20610;DHT22;10463;52.378;9.688;2023-04-01T17:06:48;25.10;26.50
20610;DHT22;10463;52.378;9.688;2023-04-01T17:10:01;25.10;26.50
20610;DHT22;10463;52.378;9.688;2023-04-01T17:12:56;25.10;26.50
20610;DHT22;10463;52.378;9.688;2023-04-01T17:15:49;25.10;26.40
20610;DHT22;10463;52.378;9.688;2023-04-01T17:18:46;25.10;26.40
20610;DHT22;10463;52.378;9.688;2023-04-01T17:21:48;25.10;26.40
20610;DHT22;10463;52.378;9.688;2023-04-01T17:24:54;25.10;26.50
20610;DHT22;10463;52.378;9.688;2023-04-01T17:27:51;25.10;27.00
20610;DHT22;10463;52.378;9.688;2023-04-01T17:30:39;25.10;26.40
20610;DHT22;10463;52.378;9.688;2023-04-01T17:33:58;25.10;26.40
20610;DHT22;10463;52.378;9.688;2023-04-01T17:36:59;25.00;26.40
20610;DHT22;10463;52.378;9.688;2023-04-01T17:40:08;25.00;26.40
20610;DHT22;10463;52.378;9.688;2023-04-01T17:43:00;25.00;26.40
20610;DHT22;10463;52.378;9.688;2023-04-01T17:45:52;25.00;26.70
20610;DHT22;10463;52.378;9.688;2023-04-01T17:48:44;25.00;26.40
20610;DHT22;10463;52.378;9.688;2023-04-01T17:51:38;25.00;26.40
20610;DHT22;10463;52.378;9.688;2023-04-01T17:54:31;25.00;26.40
20610;DHT22;10463;52.378;9.688;2023-04-01T17:57:39;25.00;26.40
20610;DHT22;10463;52.378;9.688;2023-04-01T18:00:36;25.00;26.40
20610;DHT22;10463;52.378;9.688;2023-04-01T18:03:50;25.00;26.30
20610;DHT22;10463;52.378;9.688;2023-04-01T18:06:52;25.00;26.40
20610;DHT22;10463;52.378;9.688;2023-04-01T18:09:52;25.00;26.30
20610;DHT22;10463;52.378;9.688;2023-04-01T18:13:08;25.00;26.40
20610;DHT22;10463;52.378;9.688;2023-04-01T18:16:12;25.00;26.30
20610;DHT22;10463;52.378;9.688;2023-04-01T18:19:08;24.90;26.20
20610;DHT22;10463;52.378;9.688;2023-04-01T18:21:59;24.90;26.30
20610;DHT22;10463;52.378;9.688;2023-04-01T18:24:54;24.90;26.20
20610;DHT22;10463;52.378;9.688;2023-04-01T18:27:44;24.90;26.20
20610;DHT22;10463;52.378;9.688;2023-04-01T18:30:32;24.90;26.20
20610;DHT22;10463;52.378;9.688;2023-04-01T18:33:26;24.90;26.20
20610;DHT22;10463;52.378;9.688;2023-04-01T18:36:22;24.90;26.20
20610;DHT22;10463;52.378;9.688;2023-04-01T18:39:15;24.90;26.20
20610;DHT22;10463;52.378;9.688;2023-04-01T18:42:10;24.90;26.20
20610;DHT22;10463;52.378;9.688;2023-04-01T18:45:14;24.90;26.20
20610;DHT22;10463;52.378;9.688;2023-04-01T18:48:15;24.90;26.20
20610;DHT22;10463;52.378;9.688;2023-04-01T21:34:57;24.30;25.50
20610;DHT22;10463;52.378;9.688;2023-04-01T21:37:57;24.30;25.50
20610;DHT22;10463;52.378;9.688;2023-04-01T21:41:04;24.30;25.50
20610;DHT22;10463;52.378;9.688;2023-04-01T21:44:20;24.30;25.40
20610;DHT22;10463;52.378;9.688;2023-04-01T21:58:30;24.30;25.40
20610;DHT22;10463;52.378;9.688;2023-04-01T22:05:04;24.20;25.40
20610;DHT22;10463;52.378;9.688;2023-04-01T22:07:59;24.20;25.40
20610;DHT22;10463;52.378;9.688;2023-04-01T22:10:52;24.20;25.40
20610;DHT22;10463;52.378;9.688;2023-04-01T22:13:48;24.20;25.30
20610;DHT22;10463;52.378;9.688;2023-04-01T22:16:39;24.20;25.30
20610;DHT22;10463;52.378;9.688;2023-04-01T22:19:35;24.20;25.30
20610;DHT22;10463;52.378;9.688;2023-04-01T22:22:30;24.20;25.30
20610;DHT22;10463;52.378;9.688;2023-04-01T22:25:26;24.20;25.30
20610;DHT22;10463;52.378;9.688;2023-04-01T22:28:20;24.20;25.30
20610;DHT22;10463;52.378;9.688;2023-04-01T22:31:09;24.20;25.30
20610;DHT22;10463;52.378;9.688;2023-04-01T22:34:03;24.20;25.30
20610;DHT22;10463;52.378;9.688;2023-04-01T22:36:57;24.20;25.30
20610;DHT22;10463;52.378;9.688;2023-04-01T22:40:01;24.20;25.30
20610;DHT22;10463;52.378;9.688;2023-04-01T22:42:59;24.10;25.20
20610;DHT22;10463;52.378;9.688;2023-04-01T22:46:06;24.10;25.20
20610;DHT22;10463;52.378;9.688;2023-04-01T22:49:02;24.10;25.20
20610;DHT22;10463;52.378;9.688;2023-04-01T22:51:53;24.10;25.20
20610;DHT22;10463;52.378;9.688;2023-04-01T22:54:43;24.10;25.20
20610;DHT22;10463;52.378;9.688;2023-04-01T22:57:40;24.10;25.20